createdAt,value
2022-08-28T00:00:43.730Z,20.04
2022-08-28T00:03:13.888Z,20.00
2022-08-28T00:05:44.383Z,19.96
2022-08-28T00:08:14.492Z,19.94
2022-08-28T00:10:45.028Z,19.94
2022-08-28T00:13:17.412Z,19.91
2022-08-28T00:15:51.081Z,19.89
2022-08-28T00:18:19.618Z,19.83
2022-08-28T00:20:48.997Z,19.77
2022-08-28T00:23:17.262Z,19.77
2022-08-28T00:25:44.316Z,19.78
2022-08-28T00:28:23.866Z,19.76
2022-08-28T00:30:56.608Z,19.70
2022-08-28T00:33:29.940Z,19.70
2022-08-28T00:35:58.945Z,19.68
2022-08-28T00:38:30.318Z,19.62
2022-08-28T00:41:01.684Z,19.58
2022-08-28T00:43:39.486Z,19.53
2022-08-28T00:46:18.108Z,19.48
2022-08-28T00:48:48.009Z,19.50
2022-08-28T00:51:20.336Z,19.53
2022-08-28T00:53:48.916Z,19.51
2022-08-28T00:56:19.365Z,19.53
2022-08-28T00:58:51.327Z,19.54
2022-08-28T01:01:19.789Z,19.56
2022-08-28T01:03:46.807Z,19.56
2022-08-28T01:06:16.704Z,19.61
2022-08-28T01:08:50.440Z,19.63
2022-08-28T01:11:19.787Z,19.66
2022-08-28T01:13:48.592Z,19.68
2022-08-28T01:16:19.679Z,19.68
2022-08-28T01:18:48.496Z,19.67
2022-08-28T01:21:28.918Z,19.69
2022-08-28T01:24:04.845Z,19.69
2022-08-28T01:26:32.031Z,19.73
2022-08-28T01:29:00.985Z,19.78
2022-08-28T01:31:30.349Z,19.70
2022-08-28T01:33:57.909Z,19.71
2022-08-28T01:36:25.134Z,19.72
2022-08-28T01:39:01.246Z,19.72
2022-08-28T01:41:28.193Z,19.71
2022-08-28T01:43:55.518Z,19.76
2022-08-28T01:46:22.895Z,19.76
2022-08-28T01:48:49.750Z,19.77
2022-08-28T01:51:20.411Z,19.80
2022-08-28T01:53:49.824Z,19.82
2022-08-28T01:56:18.687Z,19.82
2022-08-28T01:58:46.311Z,19.83
2022-08-28T02:01:16.109Z,19.83
2022-08-28T02:03:43.533Z,19.81
2022-08-28T02:06:11.883Z,19.81
2022-08-28T02:08:39.535Z,19.82
2022-08-28T02:11:07.757Z,19.82
2022-08-28T02:13:38.572Z,19.82
2022-08-28T02:16:09.267Z,19.82
2022-08-28T02:18:38.272Z,19.82
2022-08-28T02:21:07.583Z,19.82
2022-08-28T02:23:35.602Z,19.82
2022-08-28T02:26:02.375Z,19.82
2022-08-28T02:28:29.419Z,19.68
2022-08-28T02:30:57.741Z,19.72
2022-08-28T02:33:24.650Z,19.69
2022-08-28T02:35:51.813Z,19.72
2022-08-28T02:38:18.892Z,19.71
2022-08-28T02:40:46.466Z,19.69
2022-08-28T02:43:13.546Z,19.61
2022-08-28T02:45:40.670Z,19.59
2022-08-28T02:48:16.762Z,19.58
2022-08-28T02:50:44.713Z,19.55
2022-08-28T02:53:11.965Z,19.56
2022-08-28T02:55:38.995Z,19.52
2022-08-28T02:58:06.524Z,19.54
2022-08-28T03:00:33.634Z,19.50
2022-08-28T03:03:00.508Z,19.49
2022-08-28T03:05:28.891Z,19.49
2022-08-28T03:07:55.720Z,19.51
2022-08-28T03:10:23.061Z,19.52
2022-08-28T03:12:50.022Z,19.51
2022-08-28T03:15:17.449Z,19.53
2022-08-28T03:17:45.281Z,19.51
2022-08-28T03:20:15.844Z,19.53
2022-08-28T03:22:44.606Z,19.51
2022-08-28T03:25:12.421Z,19.53
2022-08-28T03:27:39.618Z,19.53
2022-08-28T03:30:08.436Z,19.50
2022-08-28T03:32:36.222Z,19.50
2022-08-28T03:35:05.339Z,19.51
2022-08-28T03:37:32.263Z,19.53
2022-08-28T03:40:00.699Z,19.52
2022-08-28T03:42:27.581Z,19.54
2022-08-28T03:44:54.739Z,19.56
2022-08-28T03:47:21.728Z,19.55
2022-08-28T03:49:55.244Z,19.55
2022-08-28T03:52:23.456Z,19.56
2022-08-28T03:54:51.233Z,19.57
2022-08-28T03:57:21.819Z,19.56
2022-08-28T03:59:52.370Z,19.46
2022-08-28T04:02:19.942Z,19.46
2022-08-28T04:04:48.228Z,19.47
2022-08-28T04:07:16.289Z,19.50
2022-08-28T04:09:43.306Z,19.52
2022-08-28T04:12:10.835Z,19.54
2022-08-28T04:14:39.393Z,19.54
2022-08-28T04:17:07.154Z,19.55
2022-08-28T04:19:34.357Z,19.50
2022-08-28T04:22:01.380Z,19.51
2022-08-28T04:24:28.221Z,19.50
2022-08-28T04:26:55.151Z,19.51
2022-08-28T04:29:22.125Z,19.51
2022-08-28T04:31:50.584Z,19.49
2022-08-28T04:34:17.796Z,19.47
2022-08-28T04:36:45.148Z,19.49
2022-08-28T04:39:12.007Z,19.42
2022-08-28T04:41:38.861Z,19.45
2022-08-28T04:44:06.717Z,19.46
2022-08-28T04:46:34.062Z,19.43
2022-08-28T04:49:03.167Z,19.44
2022-08-28T04:51:31.268Z,19.41
2022-08-28T04:53:58.957Z,19.37
2022-08-28T04:56:26.957Z,19.35
2022-08-28T04:58:54.177Z,19.37
2022-08-28T05:01:24.578Z,19.40
2022-08-28T05:03:56.362Z,19.40
2022-08-28T05:06:26.739Z,19.38
2022-08-28T05:08:57.915Z,19.35
2022-08-28T05:11:33.418Z,19.36
2022-08-28T05:14:04.970Z,19.37
2022-08-28T05:16:33.586Z,19.41
2022-08-28T05:19:01.644Z,19.41
2022-08-28T05:21:30.216Z,19.41
2022-08-28T05:23:58.057Z,19.45
2022-08-28T05:26:27.234Z,19.46
2022-08-28T05:28:58.193Z,19.46
2022-08-28T05:31:26.781Z,19.46
2022-08-28T05:33:54.803Z,19.48
2022-08-28T05:36:25.787Z,19.48
2022-08-28T05:38:58.433Z,19.50
2022-08-28T05:41:29.321Z,19.53
2022-08-28T05:43:58.077Z,19.50
2022-08-28T05:46:25.798Z,19.46
2022-08-28T05:48:52.695Z,19.49
2022-08-28T05:51:23.030Z,19.49
2022-08-28T05:53:52.093Z,19.57
2022-08-28T05:56:24.352Z,19.63
2022-08-28T05:58:51.729Z,19.68
2022-08-28T06:01:22.338Z,19.72
2022-08-28T06:03:54.853Z,19.78
2022-08-28T06:06:23.304Z,19.74
2022-08-28T06:09:07.380Z,19.78
2022-08-28T06:11:36.953Z,19.82
2022-08-28T06:14:08.909Z,19.80
2022-08-28T06:16:38.736Z,19.89
2022-08-28T06:19:06.452Z,19.92
2022-08-28T06:21:33.318Z,19.95
2022-08-28T06:24:00.523Z,20.01
2022-08-28T06:26:27.642Z,20.11
2022-08-28T06:29:00.376Z,20.19
2022-08-28T06:31:33.040Z,20.26
2022-08-28T06:34:01.330Z,20.33
2022-08-28T06:36:33.089Z,20.48
2022-08-28T06:39:03.652Z,20.56
2022-08-28T06:41:31.387Z,20.64
2022-08-28T06:44:00.010Z,20.66
2022-08-28T06:46:27.583Z,20.73
2022-08-28T06:48:54.861Z,20.86
2022-08-28T06:51:24.844Z,20.95
2022-08-28T06:53:52.387Z,21.02
2022-08-28T06:56:25.710Z,21.05
2022-08-28T06:58:56.204Z,21.06
2022-08-28T07:01:28.340Z,21.11
2022-08-28T07:03:58.835Z,20.88
2022-08-28T07:06:27.138Z,20.98
2022-08-28T07:08:54.201Z,21.02
2022-08-28T07:11:26.129Z,21.10
2022-08-28T07:13:55.890Z,20.90
2022-08-28T07:16:29.070Z,21.01
2022-08-28T07:18:57.610Z,21.12
2022-08-28T07:21:25.008Z,21.19
2022-08-28T07:23:51.966Z,21.25
2022-08-28T07:26:22.570Z,21.32
2022-08-28T07:28:50.171Z,21.39
2022-08-28T07:31:23.289Z,21.42
2022-08-28T07:33:54.064Z,21.38
2022-08-28T07:36:29.261Z,21.41
2022-08-28T07:38:59.688Z,21.42
2022-08-28T07:41:30.134Z,21.44
2022-08-28T07:43:57.929Z,21.42
2022-08-28T07:46:25.022Z,21.09
2022-08-28T07:48:53.516Z,21.21
2022-08-28T07:51:20.783Z,21.37
2022-08-28T07:53:47.638Z,21.47
2022-08-28T07:56:14.547Z,21.58
2022-08-28T07:58:41.372Z,21.68
2022-08-28T08:01:08.796Z,21.80
2022-08-28T08:03:35.679Z,21.42
2022-08-28T08:06:05.994Z,21.40
2022-08-28T08:08:34.504Z,21.67
2022-08-28T08:11:06.004Z,21.87
2022-08-28T08:13:35.307Z,21.86
2022-08-28T08:16:06.451Z,22.03
2022-08-28T08:18:34.199Z,22.13
2022-08-28T08:21:07.003Z,22.24
2022-08-28T08:23:34.694Z,22.42
2022-08-28T08:26:05.068Z,22.62
2022-08-28T08:28:35.291Z,22.68
2022-08-28T08:31:05.916Z,22.78
2022-08-28T08:33:33.979Z,22.81
2022-08-28T08:36:01.063Z,23.08
2022-08-28T08:38:30.779Z,23.01
2022-08-28T08:41:00.418Z,23.25
2022-08-28T08:43:33.523Z,23.49
2022-08-28T08:46:00.937Z,23.72
2022-08-28T08:48:34.070Z,24.10
2022-08-28T08:51:11.051Z,24.44
2022-08-28T08:53:54.112Z,24.89
2022-08-28T08:56:21.006Z,25.04
2022-08-28T08:58:53.571Z,25.37
2022-08-28T09:01:30.693Z,25.48
2022-08-28T09:04:09.127Z,25.69
2022-08-28T09:06:47.551Z,25.77
2022-08-28T09:09:26.431Z,26.02
2022-08-28T09:11:57.843Z,26.15
2022-08-28T09:14:37.812Z,25.94
2022-08-28T09:17:07.342Z,26.49
2022-08-28T09:19:37.762Z,26.11
2022-08-28T09:22:05.017Z,26.56
2022-08-28T09:24:35.923Z,27.11
2022-08-28T09:27:12.331Z,26.54
2022-08-28T09:29:42.433Z,27.28
2022-08-28T09:32:23.167Z,27.82
2022-08-28T09:35:13.176Z,28.45
2022-08-28T09:37:42.593Z,28.83
2022-08-28T09:40:25.000Z,27.84
2022-08-28T09:43:15.039Z,27.07
2022-08-28T09:45:42.547Z,27.00
2022-08-28T09:48:21.848Z,27.10
2022-08-28T09:50:59.357Z,27.67
2022-08-28T09:53:26.217Z,28.09
2022-08-28T09:56:08.087Z,28.54
2022-08-28T09:58:39.867Z,28.08
2022-08-28T10:01:47.289Z,28.18
2022-08-28T10:04:46.297Z,28.06
2022-08-28T10:07:25.002Z,27.34
2022-08-28T10:10:12.696Z,27.75
2022-08-28T10:13:02.960Z,28.81
2022-08-28T10:16:19.042Z,29.39
2022-08-28T10:18:58.010Z,29.71
2022-08-28T10:21:36.714Z,29.41
2022-08-28T10:24:28.391Z,29.55
2022-08-28T10:27:11.236Z,29.44
2022-08-28T10:29:53.664Z,29.02
2022-08-28T10:32:53.741Z,28.80
2022-08-28T10:35:25.734Z,28.55
2022-08-28T10:38:08.757Z,28.22
2022-08-28T10:40:40.426Z,27.81
2022-08-28T10:43:16.362Z,27.63
2022-08-28T10:45:45.700Z,27.27
2022-08-28T10:48:25.141Z,28.26
2022-08-28T10:51:00.483Z,27.87
2022-08-28T10:53:37.448Z,28.35
2022-08-28T10:56:13.001Z,29.40
2022-08-28T10:58:41.374Z,29.87
2022-08-28T11:01:18.558Z,29.96
2022-08-28T11:03:51.371Z,30.16
2022-08-28T11:06:33.198Z,30.55
2022-08-28T11:09:06.801Z,29.07
2022-08-28T11:11:45.043Z,28.13
2022-08-28T11:14:26.786Z,28.46
2022-08-28T11:17:00.380Z,29.05
2022-08-28T11:19:59.618Z,29.55
2022-08-28T11:22:34.829Z,30.66
2022-08-28T11:25:15.132Z,30.63
2022-08-28T11:28:16.035Z,30.43
2022-08-28T11:30:44.721Z,30.95
2022-08-28T11:33:39.396Z,31.17
2022-08-28T11:36:12.230Z,31.24
2022-08-28T11:39:05.898Z,29.58
2022-08-28T11:41:36.198Z,28.54
2022-08-28T11:44:38.637Z,29.40
2022-08-28T11:47:49.522Z,30.43
2022-08-28T11:50:25.524Z,28.12
2022-08-28T11:53:50.842Z,27.70
2022-08-28T11:56:49.101Z,28.37
2022-08-28T11:59:45.528Z,28.85
2022-08-28T12:02:48.752Z,29.18
2022-08-28T12:05:49.638Z,29.09
2022-08-28T12:09:08.534Z,29.51
2022-08-28T12:11:56.776Z,29.10
2022-08-28T12:15:10.134Z,28.95
2022-08-28T12:17:59.755Z,28.91
2022-08-28T12:20:38.834Z,28.47
2022-08-28T12:23:39.535Z,28.26
2022-08-28T12:26:19.203Z,28.38
2022-08-28T12:28:51.561Z,28.49
2022-08-28T12:32:01.320Z,28.38
2022-08-28T12:34:49.855Z,28.18
2022-08-28T12:37:30.796Z,28.12
2022-08-28T12:40:17.915Z,28.18
2022-08-28T12:42:55.053Z,28.28
2022-08-28T12:45:29.344Z,28.08
2022-08-28T12:48:02.543Z,26.60
2022-08-28T12:50:35.287Z,26.67
2022-08-28T12:53:07.600Z,26.73
2022-08-28T12:55:37.883Z,26.84
2022-08-28T12:58:12.916Z,27.07
2022-08-28T13:00:54.712Z,27.34
2022-08-28T13:03:23.670Z,27.23
2022-08-28T13:06:01.500Z,27.32
2022-08-28T13:08:29.453Z,27.33
2022-08-28T13:10:56.674Z,27.25
2022-08-28T13:13:35.088Z,26.93
2022-08-28T13:16:04.938Z,26.73
2022-08-28T13:18:47.443Z,26.94
2022-08-28T13:21:34.866Z,27.10
2022-08-28T13:24:40.652Z,26.94
2022-08-28T13:27:25.007Z,27.15
2022-08-28T13:30:01.279Z,26.80
2022-08-28T13:32:32.586Z,26.87
2022-08-28T13:35:35.296Z,26.66
2022-08-28T13:38:07.251Z,26.31
2022-08-28T13:41:00.075Z,26.54
2022-08-28T13:43:42.762Z,26.75
2022-08-28T13:46:10.151Z,26.85
2022-08-28T13:48:37.031Z,26.96
2022-08-28T13:51:10.675Z,26.68
2022-08-28T13:53:39.732Z,26.77
2022-08-28T13:56:07.191Z,26.37
2022-08-28T13:58:34.345Z,26.53
2022-08-28T14:01:02.369Z,26.75
2022-08-28T14:03:29.379Z,26.95
2022-08-28T14:05:56.321Z,27.06
2022-08-28T14:08:25.028Z,27.21
2022-08-28T14:10:52.254Z,27.02
2022-08-28T14:13:19.437Z,27.13
2022-08-28T14:15:46.374Z,27.35
2022-08-28T14:18:13.435Z,27.44
2022-08-28T14:20:40.629Z,27.38
2022-08-28T14:23:09.844Z,27.32
2022-08-28T14:25:43.532Z,27.34
2022-08-28T14:28:12.063Z,27.30
2022-08-28T14:30:42.895Z,26.67
2022-08-28T14:33:10.942Z,26.35
2022-08-28T14:35:39.912Z,26.61
2022-08-28T14:38:07.248Z,26.70
2022-08-28T14:40:36.806Z,26.84
2022-08-28T14:43:05.413Z,26.88
2022-08-28T14:45:32.900Z,26.94
2022-08-28T14:48:00.143Z,27.00
2022-08-28T14:50:27.995Z,26.88
2022-08-28T14:52:54.957Z,26.75
2022-08-28T14:55:21.938Z,26.79
2022-08-28T14:57:51.214Z,26.83
2022-08-28T15:00:20.862Z,26.74
2022-08-28T15:02:47.840Z,26.23
2022-08-28T15:05:15.111Z,25.81
2022-08-28T15:07:41.923Z,25.92
2022-08-28T15:10:10.779Z,26.15
2022-08-28T15:12:38.563Z,26.32
2022-08-28T15:15:06.654Z,26.51
2022-08-28T15:17:34.919Z,26.63
2022-08-28T15:20:03.751Z,26.75
2022-08-28T15:22:30.839Z,26.79
2022-08-28T15:24:57.799Z,26.74
2022-08-28T15:27:24.673Z,26.84
2022-08-28T15:29:51.795Z,26.79
2022-08-28T15:32:18.914Z,26.82
2022-08-28T15:34:47.171Z,26.67
2022-08-28T15:37:14.061Z,26.72
2022-08-28T15:39:41.135Z,26.77
2022-08-28T15:42:09.946Z,26.61
2022-08-28T15:44:47.047Z,26.53
2022-08-28T15:47:17.350Z,26.55
2022-08-28T15:49:48.858Z,26.35
2022-08-28T15:52:19.606Z,26.54
2022-08-28T15:54:47.058Z,26.57
2022-08-28T15:57:14.233Z,26.62
2022-08-28T15:59:50.039Z,26.70
2022-08-28T16:02:19.822Z,26.73
2022-08-28T16:04:47.240Z,26.73
2022-08-28T16:07:20.426Z,26.77
2022-08-28T16:09:47.550Z,26.69
2022-08-28T16:12:14.458Z,26.75
2022-08-28T16:14:41.947Z,26.66
2022-08-28T16:17:10.979Z,26.70
2022-08-28T16:19:40.021Z,26.83
2022-08-28T16:22:07.807Z,26.67
2022-08-28T16:24:36.392Z,26.67
2022-08-28T16:27:03.511Z,26.68
2022-08-28T16:29:30.634Z,26.70
2022-08-28T16:31:57.532Z,26.67
2022-08-28T16:34:30.782Z,26.67
2022-08-28T16:36:58.892Z,26.70
2022-08-28T16:39:26.135Z,26.65
2022-08-28T16:41:54.664Z,26.67
2022-08-28T16:44:24.262Z,26.68
2022-08-28T16:46:51.856Z,26.61
2022-08-28T16:49:19.379Z,26.52
2022-08-28T16:51:46.987Z,26.37
2022-08-28T16:54:14.374Z,26.35
2022-08-28T16:56:41.560Z,26.31
2022-08-28T16:59:10.389Z,26.30
2022-08-28T17:01:40.154Z,26.23
2022-08-28T17:04:09.819Z,26.35
2022-08-28T17:06:36.654Z,26.27
2022-08-28T17:09:04.138Z,26.31
2022-08-28T17:11:31.935Z,26.25
2022-08-28T17:13:59.169Z,26.12
2022-08-28T17:16:30.141Z,26.00
2022-08-28T17:18:58.170Z,25.91
2022-08-28T17:21:25.298Z,25.98
2022-08-28T17:23:52.401Z,25.91
2022-08-28T17:26:20.536Z,25.80
2022-08-28T17:28:47.656Z,25.82
2022-08-28T17:31:14.992Z,25.69
2022-08-28T17:33:44.993Z,25.67
2022-08-28T17:36:21.330Z,25.63
2022-08-28T17:39:01.989Z,25.61
2022-08-28T17:41:28.882Z,25.52
2022-08-28T17:43:56.009Z,25.45
2022-08-28T17:46:22.979Z,25.39
2022-08-28T17:48:55.718Z,25.33
2022-08-28T17:51:40.386Z,25.22
2022-08-28T17:54:12.043Z,25.16
2022-08-28T17:56:39.175Z,25.15
2022-08-28T17:59:06.279Z,24.99
2022-08-28T18:01:33.285Z,24.89
2022-08-28T18:04:03.764Z,24.86
2022-08-28T18:06:30.924Z,24.79
2022-08-28T18:08:58.060Z,24.71
2022-08-28T18:11:25.129Z,24.60
2022-08-28T18:13:52.272Z,24.54
2022-08-28T18:16:19.543Z,24.46
2022-08-28T18:18:47.461Z,24.39
2022-08-28T18:21:15.761Z,24.34
2022-08-28T18:23:42.792Z,24.27
2022-08-28T18:26:10.037Z,24.24
2022-08-28T18:28:37.285Z,24.19
2022-08-28T18:31:06.457Z,24.11
2022-08-28T18:33:34.069Z,24.07
2022-08-28T18:36:01.291Z,24.00
2022-08-28T18:38:30.027Z,23.95
2022-08-28T18:40:57.104Z,23.89
2022-08-28T18:43:24.103Z,23.83
2022-08-28T18:45:50.971Z,23.77
2022-08-28T18:48:18.304Z,23.73
2022-08-28T18:50:46.708Z,23.66
2022-08-28T18:53:14.909Z,23.61
2022-08-28T18:55:43.304Z,23.57
2022-08-28T18:58:14.946Z,23.52
2022-08-28T19:00:42.760Z,23.35
2022-08-28T19:03:10.428Z,23.25
2022-08-28T19:05:39.196Z,23.18
2022-08-28T19:08:06.270Z,23.12
2022-08-28T19:10:34.938Z,23.06
2022-08-28T19:13:05.585Z,23.02
2022-08-28T19:15:34.790Z,22.97
2022-08-28T19:18:02.775Z,22.89
2022-08-28T19:20:31.176Z,22.80
2022-08-28T19:22:59.178Z,22.75
2022-08-28T19:25:29.453Z,22.66
2022-08-28T19:27:59.157Z,22.64
2022-08-28T19:30:34.751Z,22.56
2022-08-28T19:33:04.868Z,22.52
2022-08-28T19:35:33.214Z,22.50
2022-08-28T19:38:00.867Z,22.46
2022-08-28T19:40:28.430Z,22.45
2022-08-28T19:42:55.376Z,22.43
2022-08-28T19:45:23.404Z,22.42
2022-08-28T19:47:52.344Z,22.37
2022-08-28T19:50:19.989Z,22.32
2022-08-28T19:52:46.856Z,22.28
2022-08-28T19:55:17.711Z,22.26
2022-08-28T19:57:44.979Z,22.19
2022-08-28T20:00:13.458Z,22.08
2022-08-28T20:02:40.851Z,22.05
2022-08-28T20:05:10.971Z,22.04
2022-08-28T20:07:37.860Z,22.01
2022-08-28T20:10:06.947Z,21.99
2022-08-28T20:12:37.187Z,21.97
2022-08-28T20:15:05.718Z,22.00
2022-08-28T20:17:33.055Z,21.93
2022-08-28T20:20:03.019Z,21.93
2022-08-28T20:22:32.184Z,21.85
2022-08-28T20:24:59.453Z,21.86
2022-08-28T20:27:26.672Z,21.83
2022-08-28T20:29:53.701Z,21.70
2022-08-28T20:32:20.931Z,21.71
2022-08-28T20:34:47.749Z,21.75
2022-08-28T20:37:14.841Z,21.79
2022-08-28T20:39:43.230Z,21.78
2022-08-28T20:42:10.935Z,21.78
2022-08-28T20:44:37.947Z,21.79
2022-08-28T20:47:06.031Z,21.79
2022-08-28T20:49:34.166Z,21.76
2022-08-28T20:52:07.195Z,21.73
2022-08-28T20:54:37.605Z,21.71
2022-08-28T20:57:10.201Z,21.69
2022-08-28T20:59:40.794Z,21.01
2022-08-28T21:02:10.913Z,20.53
2022-08-28T21:04:39.969Z,20.40
2022-08-28T21:07:07.272Z,20.52
2022-08-28T21:09:58.162Z,20.67
2022-08-28T21:12:23.836Z,20.85
2022-08-28T21:14:52.710Z,20.99
2022-08-28T21:17:22.605Z,21.10
2022-08-28T21:19:59.171Z,21.17
2022-08-28T21:22:26.014Z,21.22
2022-08-28T21:24:53.871Z,21.16
2022-08-28T21:27:22.045Z,21.12
2022-08-28T21:29:49.067Z,21.11
2022-08-28T21:32:16.021Z,21.12
2022-08-28T21:34:42.878Z,21.15
2022-08-28T21:37:09.986Z,21.16
2022-08-28T21:39:36.927Z,21.17
2022-08-28T21:42:04.114Z,21.19
2022-08-28T21:44:32.507Z,20.98
2022-08-28T21:47:00.245Z,20.83
2022-08-28T21:49:27.302Z,20.82
2022-08-28T21:51:54.420Z,20.85
2022-08-28T21:54:22.125Z,20.91
2022-08-28T21:56:50.629Z,20.93
2022-08-28T21:59:26.713Z,20.96
2022-08-28T22:02:01.406Z,20.90
2022-08-28T22:04:29.124Z,20.80
2022-08-28T22:06:56.111Z,20.72
2022-08-28T22:09:23.023Z,20.64
2022-08-28T22:11:50.431Z,20.52
2022-08-28T22:14:17.312Z,20.46
2022-08-28T22:16:44.632Z,20.40
2022-08-28T22:19:12.859Z,20.37
2022-08-28T22:21:39.675Z,20.34
2022-08-28T22:24:09.820Z,20.29
2022-08-28T22:26:37.823Z,20.24
2022-08-28T22:29:05.098Z,20.19
2022-08-28T22:31:32.297Z,20.14
2022-08-28T22:33:59.245Z,20.09
2022-08-28T22:36:29.405Z,20.09
2022-08-28T22:38:57.127Z,20.09
2022-08-28T22:41:24.885Z,20.08
2022-08-28T22:43:53.670Z,20.04
2022-08-28T22:46:20.803Z,19.99
2022-08-28T22:48:48.954Z,19.90
2022-08-28T22:51:18.767Z,19.70
2022-08-28T22:53:48.646Z,19.69
2022-08-28T22:56:17.206Z,19.69
2022-08-28T22:58:44.716Z,19.64
2022-08-28T23:01:17.590Z,19.58
2022-08-28T23:03:45.658Z,19.57
2022-08-28T23:06:13.332Z,19.54
2022-08-28T23:08:41.054Z,19.51
2022-08-28T23:11:10.139Z,19.51
2022-08-28T23:13:38.808Z,19.49
2022-08-28T23:16:06.722Z,19.50
2022-08-28T23:18:51.657Z,19.51
2022-08-28T23:21:26.217Z,19.44
2022-08-28T23:23:54.860Z,19.46
2022-08-28T23:26:24.979Z,19.47
2022-08-28T23:28:52.969Z,19.39
2022-08-28T23:31:19.871Z,19.39
2022-08-28T23:33:48.586Z,19.23
2022-08-28T23:36:16.056Z,19.24
2022-08-28T23:38:45.543Z,19.18
2022-08-28T23:41:12.762Z,19.17
2022-08-28T23:43:42.183Z,19.18
2022-08-28T23:46:09.838Z,19.17
2022-08-28T23:48:40.553Z,19.13
2022-08-28T23:51:09.250Z,19.17
2022-08-28T23:53:36.817Z,19.05
2022-08-28T23:56:04.521Z,19.07
2022-08-28T23:58:31.801Z,19.03
